TimeMST,TemperatureF,Dew PointF,Humidity,Sea Level PressureIn,VisibilityMPH,Wind Direction,Wind SpeedMPH,Gust SpeedMPH,PrecipitationIn,Events,Conditions,WindDirDegrees,DateUTC
12:16 AM,6.8,-4.0,61,30.00,10.0,Calm,Calm,-,N/A,,Clear,0,2013-01-15 07:16:00
12:36 AM,8.6,-4.0,57,30.01,10.0,North,3.5,-,N/A,,Clear,360,2013-01-15 07:36:00
12:56 AM,8.6,-2.2,62,30.01,10.0,Calm,Calm,-,N/A,,Clear,0,2013-01-15 07:56:00
1:16 AM,8.6,-2.2,62,30.01,10.0,Calm,Calm,-,N/A,,Clear,0,2013-01-15 08:16:00
1:36 AM,8.6,-0.4,67,30.01,10.0,NNE,3.5,-,N/A,,Clear,20,2013-01-15 08:36:00
1:56 AM,8.6,-2.2,62,30.01,10.0,NNW,3.5,-,N/A,,Clear,340,2013-01-15 08:56:00
2:16 AM,6.8,-2.2,67,30.01,10.0,Calm,Calm,-,N/A,,Clear,0,2013-01-15 09:16:00
2:36 AM,6.8,-4.0,61,30.01,10.0,Calm,Calm,-,N/A,,Clear,0,2013-01-15 09:36:00
2:56 AM,5.0,-4.0,66,30.01,10.0,Calm,Calm,-,N/A,,Clear,0,2013-01-15 09:56:00
3:16 AM,6.8,-2.2,67,30.01,10.0,Calm,Calm,-,N/A,,Clear,0,2013-01-15 10:16:00
3:56 AM,5.0,-4.0,66,30.01,10.0,Calm,Calm,-,N/A,,Clear,0,2013-01-15 10:56:00
4:16 AM,3.2,-5.8,66,30.00,10.0,SW,4.6,-,N/A,,Clear,220,2013-01-15 11:16:00
4:36 AM,1.4,-5.8,72,29.99,10.0,SW,5.8,-,N/A,,Clear,230,2013-01-15 11:36:00
4:56 AM,3.2,-4.0,72,29.99,10.0,WSW,4.6,-,N/A,,Clear,240,2013-01-15 11:56:00
5:46 AM,3.2,-5.8,66,30.00,15.0,WSW,3.5,-,N/A,,Clear,240,2013-01-15 12:46:00
6:50 AM,3.2,-5.8,66,30.00,25.0,Calm,Calm,-,N/A,,Mostly Cloudy,0,2013-01-15 13:50:00
7:50 AM,8.6,-2.2,62,30.03,40.0,Calm,Calm,-,N/A,,Mostly Cloudy,0,2013-01-15 14:50:00
8:47 AM,10.4,1.4,67,30.04,50.0,Calm,Calm,-,N/A,,Mostly Cloudy,0,2013-01-15 15:47:00
9:47 AM,19.4,1.4,46,30.05,50.0,Variable,3.5,-,N/A,,Mostly Cloudy,0,2013-01-15 16:47:00
10:47 AM,23.0,-2.2,33,30.04,40.0,Variable,4.6,-,N/A,,Overcast,0,2013-01-15 17:47:00
11:53 AM,24.8,-0.4,34,30.02,40.0,SSW,4.6,-,N/A,,Mostly Cloudy,200,2013-01-15 18:53:00
12:53 PM,28.4,-0.4,29,30.01,30.0,Calm,Calm,-,N/A,,Overcast,0,2013-01-15 19:53:00
1:46 PM,30.2,-2.2,25,30.01,50.0,Variable,3.5,-,N/A,,Overcast,0,2013-01-15 20:46:00
2:50 PM,30.2,-0.4,27,30.03,40.0,South,6.9,-,N/A,,Overcast,180,2013-01-15 21:50:00
3:46 PM,30.2,-0.4,27,30.03,40.0,South,8.1,-,N/A,,Overcast,180,2013-01-15 22:46:00
4:46 PM,30.2,1.4,29,30.05,40.0,SSE,5.8,-,N/A,,Mostly Cloudy,160,2013-01-15 23:46:00
5:47 PM,30.2,1.4,29,30.05,40.0,SSW,4.6,-,N/A,,Mostly Cloudy,200,2013-01-16 00:47:00
6:52 PM,28.4,3.2,34,30.08,20.0,WSW,4.6,-,N/A,,Mostly Cloudy,240,2013-01-16 01:52:00
7:53 PM,30.2,3.2,32,30.06,20.0,Variable,3.5,-,N/A,,Overcast,0,2013-01-16 02:53:00
8:47 PM,30.2,5.0,34,30.06,20.0,Calm,Calm,-,N/A,,Mostly Cloudy,0,2013-01-16 03:47:00
9:50 PM,30.2,6.8,37,30.07,20.0,Calm,Calm,-,N/A,,Mostly Cloudy,0,2013-01-16 04:50:00
10:16 PM,32.0,6.8,35,30.09,10.0,Calm,Calm,-,N/A,,Mostly Cloudy,0,2013-01-16 05:16:00
10:36 PM,32.0,8.6,38,30.09,10.0,West,4.6,-,N/A,,Overcast,270,2013-01-16 05:36:00
11:16 PM,30.2,10.4,44,30.09,10.0,West,6.9,-,N/A,,Scattered Clouds,260,2013-01-16 06:16:00
11:36 PM,32.0,10.4,41,30.10,10.0,Calm,Calm,-,N/A,,Mostly Cloudy,0,2013-01-16 06:36:00
11:56 PM,32.0,10.4,41,30.09,10.0,WSW,3.5,-,N/A,,Scattered Clouds,240,2013-01-16 06:56:00